sensor_id;sensor_type;location;lat;lon;timestamp;temperature;humidity
2212;DHT22;48849;48.758;9.158;2022-08-19T00:01:17;24.40;99.90
2212;DHT22;48849;48.758;9.158;2022-08-19T00:03:44;25.30;99.90
2212;DHT22;48849;48.758;9.158;2022-08-19T00:06:11;24.40;99.90
2212;DHT22;48849;48.758;9.158;2022-08-19T00:08:38;24.50;99.90
2212;DHT22;48849;48.758;9.158;2022-08-19T00:11:06;24.40;99.90
2212;DHT22;48849;48.758;9.158;2022-08-19T00:13:33;24.40;99.90
2212;DHT22;48849;48.758;9.158;2022-08-19T00:16:00;25.50;99.90
2212;DHT22;48849;48.758;9.158;2022-08-19T00:18:27;25.10;99.90
2212;DHT22;48849;48.758;9.158;2022-08-19T00:20:54;24.40;99.90
2212;DHT22;48849;48.758;9.158;2022-08-19T00:23:21;24.40;99.90
2212;DHT22;48849;48.758;9.158;2022-08-19T00:25:47;24.40;99.90
2212;DHT22;48849;48.758;9.158;2022-08-19T00:28:15;24.70;99.90
2212;DHT22;48849;48.758;9.158;2022-08-19T00:30:42;24.30;99.90
2212;DHT22;48849;48.758;9.158;2022-08-19T00:33:09;24.30;99.90
2212;DHT22;48849;48.758;9.158;2022-08-19T00:35:36;24.30;99.90
2212;DHT22;48849;48.758;9.158;2022-08-19T00:38:04;26.00;99.90
2212;DHT22;48849;48.758;9.158;2022-08-19T00:40:32;24.30;99.90
2212;DHT22;48849;48.758;9.158;2022-08-19T00:42:59;24.50;99.90
2212;DHT22;48849;48.758;9.158;2022-08-19T00:45:28;24.40;99.90
2212;DHT22;48849;48.758;9.158;2022-08-19T00:47:57;24.30;99.90
2212;DHT22;48849;48.758;9.158;2022-08-19T00:50:29;24.20;99.90
2212;DHT22;48849;48.758;9.158;2022-08-19T00:52:56;24.20;99.90
2212;DHT22;48849;48.758;9.158;2022-08-19T00:55:26;24.30;99.90
2212;DHT22;48849;48.758;9.158;2022-08-19T00:57:56;24.30;99.90
2212;DHT22;48849;48.758;9.158;2022-08-19T01:00:27;24.20;99.90
2212;DHT22;48849;48.758;9.158;2022-08-19T01:02:54;24.20;99.90
2212;DHT22;48849;48.758;9.158;2022-08-19T01:05:23;24.20;99.90
2212;DHT22;48849;48.758;9.158;2022-08-19T01:07:53;24.20;99.90
2212;DHT22;48849;48.758;9.158;2022-08-19T01:10:25;24.10;99.90
2212;DHT22;48849;48.758;9.158;2022-08-19T01:12:52;24.10;99.90
2212;DHT22;48849;48.758;9.158;2022-08-19T01:15:25;24.10;99.90
2212;DHT22;48849;48.758;9.158;2022-08-19T01:17:55;24.20;99.90
2212;DHT22;48849;48.758;9.158;2022-08-19T01:20:23;24.20;99.90
2212;DHT22;48849;48.758;9.158;2022-08-19T01:22:52;24.20;99.90
2212;DHT22;48849;48.758;9.158;2022-08-19T01:25:22;24.20;99.90
2212;DHT22;48849;48.758;9.158;2022-08-19T01:27:50;24.20;99.90
2212;DHT22;48849;48.758;9.158;2022-08-19T01:30:20;24.20;99.90
2212;DHT22;48849;48.758;9.158;2022-08-19T01:32:48;24.20;99.90
2212;DHT22;48849;48.758;9.158;2022-08-19T01:35:15;24.20;99.90
2212;DHT22;48849;48.758;9.158;2022-08-19T01:37:45;24.20;99.90
2212;DHT22;48849;48.758;9.158;2022-08-19T01:40:13;24.20;99.90
2212;DHT22;48849;48.758;9.158;2022-08-19T01:42:40;24.20;99.90
2212;DHT22;48849;48.758;9.158;2022-08-19T01:45:08;24.20;99.90
2212;DHT22;48849;48.758;9.158;2022-08-19T01:47:35;24.20;99.90
2212;DHT22;48849;48.758;9.158;2022-08-19T01:50:03;24.20;99.90
2212;DHT22;48849;48.758;9.158;2022-08-19T01:52:30;24.20;99.90
2212;DHT22;48849;48.758;9.158;2022-08-19T01:54:57;24.20;99.90
2212;DHT22;48849;48.758;9.158;2022-08-19T01:57:25;24.20;99.90
2212;DHT22;48849;48.758;9.158;2022-08-19T01:59:52;24.20;99.90
2212;DHT22;48849;48.758;9.158;2022-08-19T02:02:19;24.20;99.90
2212;DHT22;48849;48.758;9.158;2022-08-19T02:04:46;24.10;99.90
2212;DHT22;48849;48.758;9.158;2022-08-19T02:07:13;24.10;99.90
2212;DHT22;48849;48.758;9.158;2022-08-19T02:09:40;24.10;99.90
2212;DHT22;48849;48.758;9.158;2022-08-19T02:12:07;24.10;99.90
2212;DHT22;48849;48.758;9.158;2022-08-19T02:14:35;24.10;99.90
2212;DHT22;48849;48.758;9.158;2022-08-19T02:17:03;24.00;99.90
2212;DHT22;48849;48.758;9.158;2022-08-19T02:19:30;24.10;99.90
2212;DHT22;48849;48.758;9.158;2022-08-19T02:21:58;24.00;99.90
2212;DHT22;48849;48.758;9.158;2022-08-19T02:24:25;23.90;99.90
2212;DHT22;48849;48.758;9.158;2022-08-19T02:26:52;24.00;99.90
2212;DHT22;48849;48.758;9.158;2022-08-19T02:29:19;24.00;99.90
2212;DHT22;48849;48.758;9.158;2022-08-19T02:31:48;24.00;99.90
2212;DHT22;48849;48.758;9.158;2022-08-19T02:34:16;24.00;99.90
2212;DHT22;48849;48.758;9.158;2022-08-19T02:36:43;23.90;99.90
2212;DHT22;48849;48.758;9.158;2022-08-19T02:39:10;24.00;99.90
2212;DHT22;48849;48.758;9.158;2022-08-19T02:41:35;23.90;99.90
2212;DHT22;48849;48.758;9.158;2022-08-19T02:44:03;23.90;99.90
2212;DHT22;48849;48.758;9.158;2022-08-19T02:46:32;24.00;99.90
2212;DHT22;48849;48.758;9.158;2022-08-19T02:49:04;24.00;99.90
2212;DHT22;48849;48.758;9.158;2022-08-19T02:51:33;23.90;99.90
2212;DHT22;48849;48.758;9.158;2022-08-19T02:54:00;23.90;99.90
2212;DHT22;48849;48.758;9.158;2022-08-19T02:56:27;23.90;99.90
2212;DHT22;48849;48.758;9.158;2022-08-19T02:58:55;23.80;99.90
2212;DHT22;48849;48.758;9.158;2022-08-19T03:01:23;24.00;99.90
2212;DHT22;48849;48.758;9.158;2022-08-19T03:03:51;23.90;99.90
2212;DHT22;48849;48.758;9.158;2022-08-19T03:06:19;23.80;99.90
2212;DHT22;48849;48.758;9.158;2022-08-19T03:08:48;23.90;99.90
2212;DHT22;48849;48.758;9.158;2022-08-19T03:11:16;23.80;99.90
2212;DHT22;48849;48.758;9.158;2022-08-19T03:13:43;23.80;99.90
2212;DHT22;48849;48.758;9.158;2022-08-19T03:16:11;23.80;99.90
2212;DHT22;48849;48.758;9.158;2022-08-19T03:18:38;23.80;99.90
2212;DHT22;48849;48.758;9.158;2022-08-19T03:21:05;23.90;99.90
2212;DHT22;48849;48.758;9.158;2022-08-19T03:23:34;23.90;99.90
2212;DHT22;48849;48.758;9.158;2022-08-19T03:26:04;23.90;99.90
2212;DHT22;48849;48.758;9.158;2022-08-19T03:28:31;23.90;99.90
2212;DHT22;48849;48.758;9.158;2022-08-19T03:31:01;23.90;99.90
2212;DHT22;48849;48.758;9.158;2022-08-19T03:33:30;23.90;99.90
2212;DHT22;48849;48.758;9.158;2022-08-19T03:36:06;23.80;99.90
2212;DHT22;48849;48.758;9.158;2022-08-19T03:38:35;23.90;99.90
2212;DHT22;48849;48.758;9.158;2022-08-19T03:41:04;23.90;99.90
2212;DHT22;48849;48.758;9.158;2022-08-19T03:43:34;23.80;99.90
2212;DHT22;48849;48.758;9.158;2022-08-19T03:46:02;23.70;99.90
2212;DHT22;48849;48.758;9.158;2022-08-19T03:48:30;23.70;99.90
2212;DHT22;48849;48.758;9.158;2022-08-19T03:50:58;23.80;99.90
2212;DHT22;48849;48.758;9.158;2022-08-19T03:53:25;23.80;99.90
2212;DHT22;48849;48.758;9.158;2022-08-19T03:55:54;23.70;99.90
2212;DHT22;48849;48.758;9.158;2022-08-19T03:58:22;23.70;99.90
2212;DHT22;48849;48.758;9.158;2022-08-19T04:00:49;23.60;99.90
2212;DHT22;48849;48.758;9.158;2022-08-19T04:03:15;23.60;99.90
2212;DHT22;48849;48.758;9.158;2022-08-19T04:05:44;23.60;99.90
2212;DHT22;48849;48.758;9.158;2022-08-19T04:08:11;23.60;99.90
2212;DHT22;48849;48.758;9.158;2022-08-19T04:10:38;23.60;99.90
2212;DHT22;48849;48.758;9.158;2022-08-19T04:13:07;23.60;99.90
2212;DHT22;48849;48.758;9.158;2022-08-19T04:15:39;23.60;99.90
2212;DHT22;48849;48.758;9.158;2022-08-19T04:18:07;23.60;99.90
2212;DHT22;48849;48.758;9.158;2022-08-19T04:20:39;23.60;99.90
2212;DHT22;48849;48.758;9.158;2022-08-19T04:23:06;24.10;99.90
2212;DHT22;48849;48.758;9.158;2022-08-19T04:25:36;23.60;99.90
2212;DHT22;48849;48.758;9.158;2022-08-19T04:28:02;23.60;99.90
2212;DHT22;48849;48.758;9.158;2022-08-19T04:30:31;23.70;99.90
2212;DHT22;48849;48.758;9.158;2022-08-19T04:33:03;23.50;99.90
2212;DHT22;48849;48.758;9.158;2022-08-19T04:35:34;23.50;99.90
2212;DHT22;48849;48.758;9.158;2022-08-19T04:38:01;23.50;99.90
2212;DHT22;48849;48.758;9.158;2022-08-19T04:40:28;23.50;99.90
2212;DHT22;48849;48.758;9.158;2022-08-19T04:43:12;23.50;99.90
2212;DHT22;48849;48.758;9.158;2022-08-19T04:45:42;23.50;99.90
2212;DHT22;48849;48.758;9.158;2022-08-19T04:48:09;23.50;99.90
2212;DHT22;48849;48.758;9.158;2022-08-19T04:50:36;23.50;99.90
2212;DHT22;48849;48.758;9.158;2022-08-19T04:53:05;23.50;99.90
2212;DHT22;48849;48.758;9.158;2022-08-19T04:55:32;23.50;99.90
2212;DHT22;48849;48.758;9.158;2022-08-19T04:58:00;23.40;99.90
2212;DHT22;48849;48.758;9.158;2022-08-19T05:00:27;23.40;99.90
2212;DHT22;48849;48.758;9.158;2022-08-19T05:02:55;23.40;99.90
2212;DHT22;48849;48.758;9.158;2022-08-19T05:05:22;23.50;99.90
2212;DHT22;48849;48.758;9.158;2022-08-19T05:07:49;23.50;99.90
2212;DHT22;48849;48.758;9.158;2022-08-19T05:10:15;23.50;99.90
2212;DHT22;48849;48.758;9.158;2022-08-19T05:12:42;23.50;99.90
2212;DHT22;48849;48.758;9.158;2022-08-19T05:15:09;23.50;99.90
2212;DHT22;48849;48.758;9.158;2022-08-19T05:17:36;23.50;99.90
2212;DHT22;48849;48.758;9.158;2022-08-19T05:20:06;23.40;99.90
2212;DHT22;48849;48.758;9.158;2022-08-19T05:22:50;23.40;99.90
2212;DHT22;48849;48.758;9.158;2022-08-19T05:25:19;23.40;99.90
2212;DHT22;48849;48.758;9.158;2022-08-19T05:27:47;23.60;99.90
2212;DHT22;48849;48.758;9.158;2022-08-19T05:30:14;23.40;99.90
2212;DHT22;48849;48.758;9.158;2022-08-19T05:32:42;23.30;99.90
2212;DHT22;48849;48.758;9.158;2022-08-19T05:35:10;23.40;99.90
2212;DHT22;48849;48.758;9.158;2022-08-19T05:37:36;23.40;99.90
2212;DHT22;48849;48.758;9.158;2022-08-19T05:40:06;23.50;99.90
2212;DHT22;48849;48.758;9.158;2022-08-19T05:42:33;23.50;99.90
2212;DHT22;48849;48.758;9.158;2022-08-19T05:45:00;23.50;99.90
2212;DHT22;48849;48.758;9.158;2022-08-19T05:47:27;23.50;99.90
2212;DHT22;48849;48.758;9.158;2022-08-19T05:49:53;23.50;99.90
2212;DHT22;48849;48.758;9.158;2022-08-19T05:52:21;23.50;99.90
2212;DHT22;48849;48.758;9.158;2022-08-19T05:54:48;23.50;99.90
2212;DHT22;48849;48.758;9.158;2022-08-19T05:57:16;23.50;99.90
2212;DHT22;48849;48.758;9.158;2022-08-19T05:59:43;23.50;99.90
2212;DHT22;48849;48.758;9.158;2022-08-19T06:02:11;23.50;99.90
2212;DHT22;48849;48.758;9.158;2022-08-19T06:04:38;23.50;99.90
2212;DHT22;48849;48.758;9.158;2022-08-19T06:07:08;23.50;99.90
2212;DHT22;48849;48.758;9.158;2022-08-19T06:09:36;23.50;99.90
2212;DHT22;48849;48.758;9.158;2022-08-19T06:12:03;23.50;99.90
2212;DHT22;48849;48.758;9.158;2022-08-19T06:14:32;23.40;99.90
2212;DHT22;48849;48.758;9.158;2022-08-19T06:16:59;23.50;99.90
2212;DHT22;48849;48.758;9.158;2022-08-19T06:19:28;23.50;99.90
2212;DHT22;48849;48.758;9.158;2022-08-19T06:21:56;23.50;99.90
2212;DHT22;48849;48.758;9.158;2022-08-19T06:24:26;23.50;99.90
2212;DHT22;48849;48.758;9.158;2022-08-19T06:26:55;23.50;99.90
2212;DHT22;48849;48.758;9.158;2022-08-19T06:29:24;23.50;99.90
2212;DHT22;48849;48.758;9.158;2022-08-19T06:31:54;23.50;99.90
2212;DHT22;48849;48.758;9.158;2022-08-19T06:34:21;23.80;99.90
2212;DHT22;48849;48.758;9.158;2022-08-19T06:36:50;23.50;99.90
2212;DHT22;48849;48.758;9.158;2022-08-19T06:39:19;23.50;99.90
2212;DHT22;48849;48.758;9.158;2022-08-19T06:41:48;23.50;99.90
2212;DHT22;48849;48.758;9.158;2022-08-19T06:44:17;23.50;99.90
2212;DHT22;48849;48.758;9.158;2022-08-19T06:46:44;23.50;99.90
2212;DHT22;48849;48.758;9.158;2022-08-19T06:49:11;23.40;99.90
2212;DHT22;48849;48.758;9.158;2022-08-19T06:51:40;23.50;99.90
2212;DHT22;48849;48.758;9.158;2022-08-19T06:54:08;23.50;99.90
2212;DHT22;48849;48.758;9.158;2022-08-19T06:56:36;23.50;99.90
2212;DHT22;48849;48.758;9.158;2022-08-19T06:59:05;23.40;99.90
2212;DHT22;48849;48.758;9.158;2022-08-19T07:01:36;23.40;99.90
2212;DHT22;48849;48.758;9.158;2022-08-19T07:04:03;23.40;99.90
2212;DHT22;48849;48.758;9.158;2022-08-19T07:06:30;23.40;99.90
2212;DHT22;48849;48.758;9.158;2022-08-19T07:08:57;23.30;99.90
2212;DHT22;48849;48.758;9.158;2022-08-19T07:11:24;23.30;99.90
2212;DHT22;48849;48.758;9.158;2022-08-19T07:13:51;23.40;99.90
2212;DHT22;48849;48.758;9.158;2022-08-19T07:16:19;23.30;99.90
2212;DHT22;48849;48.758;9.158;2022-08-19T07:18:48;23.30;99.90
2212;DHT22;48849;48.758;9.158;2022-08-19T07:21:17;23.30;99.90
2212;DHT22;48849;48.758;9.158;2022-08-19T07:23:45;23.30;99.90
2212;DHT22;48849;48.758;9.158;2022-08-19T07:26:16;23.30;99.90
2212;DHT22;48849;48.758;9.158;2022-08-19T07:28:45;23.30;99.90
2212;DHT22;48849;48.758;9.158;2022-08-19T07:31:13;23.30;99.90
2212;DHT22;48849;48.758;9.158;2022-08-19T07:33:41;23.20;99.90
2212;DHT22;48849;48.758;9.158;2022-08-19T07:36:11;23.20;99.90
2212;DHT22;48849;48.758;9.158;2022-08-19T07:38:39;23.30;99.90
2212;DHT22;48849;48.758;9.158;2022-08-19T07:41:08;23.30;99.90
2212;DHT22;48849;48.758;9.158;2022-08-19T07:43:36;23.30;99.90
2212;DHT22;48849;48.758;9.158;2022-08-19T07:46:03;23.20;99.90
2212;DHT22;48849;48.758;9.158;2022-08-19T07:48:30;23.20;99.90
2212;DHT22;48849;48.758;9.158;2022-08-19T07:51:00;23.20;99.90
2212;DHT22;48849;48.758;9.158;2022-08-19T07:53:31;23.20;99.90
2212;DHT22;48849;48.758;9.158;2022-08-19T07:55:58;23.10;99.90
2212;DHT22;48849;48.758;9.158;2022-08-19T07:58:31;23.10;99.90
2212;DHT22;48849;48.758;9.158;2022-08-19T08:00:58;23.10;99.90
2212;DHT22;48849;48.758;9.158;2022-08-19T08:03:26;23.20;99.90
2212;DHT22;48849;48.758;9.158;2022-08-19T08:06:07;23.20;99.90
2212;DHT22;48849;48.758;9.158;2022-08-19T08:08:53;23.20;99.90
2212;DHT22;48849;48.758;9.158;2022-08-19T08:11:44;23.20;99.90
2212;DHT22;48849;48.758;9.158;2022-08-19T08:14:15;23.20;99.90
2212;DHT22;48849;48.758;9.158;2022-08-19T08:16:42;23.30;99.90
2212;DHT22;48849;48.758;9.158;2022-08-19T08:19:11;23.30;99.90
2212;DHT22;48849;48.758;9.158;2022-08-19T08:21:40;23.30;99.90
2212;DHT22;48849;48.758;9.158;2022-08-19T08:24:09;23.30;99.90
2212;DHT22;48849;48.758;9.158;2022-08-19T08:26:36;23.30;99.90
2212;DHT22;48849;48.758;9.158;2022-08-19T08:29:03;23.30;99.90
2212;DHT22;48849;48.758;9.158;2022-08-19T08:31:29;23.30;99.90
2212;DHT22;48849;48.758;9.158;2022-08-19T08:33:56;23.40;99.90
2212;DHT22;48849;48.758;9.158;2022-08-19T08:36:23;23.40;99.90
2212;DHT22;48849;48.758;9.158;2022-08-19T08:38:49;23.40;99.90
2212;DHT22;48849;48.758;9.158;2022-08-19T08:41:26;23.30;99.90
2212;DHT22;48849;48.758;9.158;2022-08-19T08:43:56;23.40;99.90
2212;DHT22;48849;48.758;9.158;2022-08-19T08:46:38;23.30;99.90
2212;DHT22;48849;48.758;9.158;2022-08-19T08:49:15;23.30;99.90
2212;DHT22;48849;48.758;9.158;2022-08-19T08:51:47;23.30;99.90
2212;DHT22;48849;48.758;9.158;2022-08-19T08:54:18;23.30;99.90
2212;DHT22;48849;48.758;9.158;2022-08-19T08:56:48;23.30;99.90
2212;DHT22;48849;48.758;9.158;2022-08-19T08:59:21;23.30;99.90
2212;DHT22;48849;48.758;9.158;2022-08-19T09:01:48;23.30;99.90
2212;DHT22;48849;48.758;9.158;2022-08-19T09:04:15;23.40;99.90
2212;DHT22;48849;48.758;9.158;2022-08-19T09:06:50;23.40;99.90
2212;DHT22;48849;48.758;9.158;2022-08-19T09:09:22;23.30;99.90
2212;DHT22;48849;48.758;9.158;2022-08-19T09:12:04;23.30;99.90
2212;DHT22;48849;48.758;9.158;2022-08-19T09:14:39;23.30;99.90
2212;DHT22;48849;48.758;9.158;2022-08-19T09:17:09;23.30;99.90
2212;DHT22;48849;48.758;9.158;2022-08-19T09:19:36;23.30;99.90
2212;DHT22;48849;48.758;9.158;2022-08-19T09:22:13;23.30;99.90
2212;DHT22;48849;48.758;9.158;2022-08-19T09:24:41;23.40;99.90
2212;DHT22;48849;48.758;9.158;2022-08-19T09:27:09;23.40;99.90
2212;DHT22;48849;48.758;9.158;2022-08-19T09:29:35;23.40;99.90
2212;DHT22;48849;48.758;9.158;2022-08-19T09:32:03;23.40;99.90
2212;DHT22;48849;48.758;9.158;2022-08-19T09:34:30;23.40;99.90
2212;DHT22;48849;48.758;9.158;2022-08-19T09:36:57;23.40;99.90
2212;DHT22;48849;48.758;9.158;2022-08-19T09:39:25;23.40;99.90
2212;DHT22;48849;48.758;9.158;2022-08-19T09:41:52;23.40;99.90
2212;DHT22;48849;48.758;9.158;2022-08-19T09:44:20;23.40;99.90
2212;DHT22;48849;48.758;9.158;2022-08-19T09:46:47;23.40;99.90
2212;DHT22;48849;48.758;9.158;2022-08-19T09:49:15;23.40;99.90
2212;DHT22;48849;48.758;9.158;2022-08-19T09:51:42;23.50;99.90
2212;DHT22;48849;48.758;9.158;2022-08-19T09:54:09;23.50;99.90
2212;DHT22;48849;48.758;9.158;2022-08-19T09:56:36;23.50;99.90
2212;DHT22;48849;48.758;9.158;2022-08-19T09:59:03;23.50;99.90
2212;DHT22;48849;48.758;9.158;2022-08-19T10:01:32;23.60;99.90
2212;DHT22;48849;48.758;9.158;2022-08-19T10:04:00;23.60;99.90
2212;DHT22;48849;48.758;9.158;2022-08-19T10:06:29;23.70;99.90
2212;DHT22;48849;48.758;9.158;2022-08-19T10:08:59;23.60;99.90
2212;DHT22;48849;48.758;9.158;2022-08-19T10:11:25;23.60;99.90
2212;DHT22;48849;48.758;9.158;2022-08-19T10:13:53;24.40;99.90
2212;DHT22;48849;48.758;9.158;2022-08-19T10:16:21;23.60;99.90
2212;DHT22;48849;48.758;9.158;2022-08-19T10:18:50;23.50;99.90
2212;DHT22;48849;48.758;9.158;2022-08-19T10:21:20;23.60;99.90
2212;DHT22;48849;48.758;9.158;2022-08-19T10:23:48;23.60;99.90
2212;DHT22;48849;48.758;9.158;2022-08-19T10:26:17;23.60;99.90
2212;DHT22;48849;48.758;9.158;2022-08-19T10:28:44;23.60;99.90
2212;DHT22;48849;48.758;9.158;2022-08-19T10:31:13;23.60;99.90
2212;DHT22;48849;48.758;9.158;2022-08-19T10:33:40;23.60;99.90
2212;DHT22;48849;48.758;9.158;2022-08-19T10:36:11;23.60;99.90
2212;DHT22;48849;48.758;9.158;2022-08-19T10:38:40;23.60;99.90
2212;DHT22;48849;48.758;9.158;2022-08-19T10:41:09;23.60;99.90
2212;DHT22;48849;48.758;9.158;2022-08-19T10:43:36;23.70;99.90
2212;DHT22;48849;48.758;9.158;2022-08-19T10:46:04;23.70;99.90
2212;DHT22;48849;48.758;9.158;2022-08-19T10:48:31;23.70;99.90
2212;DHT22;48849;48.758;9.158;2022-08-19T10:50:58;23.70;99.90
2212;DHT22;48849;48.758;9.158;2022-08-19T10:53:43;23.70;99.90
2212;DHT22;48849;48.758;9.158;2022-08-19T10:56:10;23.70;99.90
2212;DHT22;48849;48.758;9.158;2022-08-19T10:58:54;23.70;99.90
2212;DHT22;48849;48.758;9.158;2022-08-19T11:01:23;23.70;99.90
2212;DHT22;48849;48.758;9.158;2022-08-19T11:03:49;23.70;99.90
2212;DHT22;48849;48.758;9.158;2022-08-19T11:06:16;23.70;99.90
2212;DHT22;48849;48.758;9.158;2022-08-19T11:08:44;23.70;99.90
2212;DHT22;48849;48.758;9.158;2022-08-19T11:11:12;23.80;99.90
2212;DHT22;48849;48.758;9.158;2022-08-19T11:13:40;23.80;99.90
2212;DHT22;48849;48.758;9.158;2022-08-19T11:16:10;23.80;99.90
2212;DHT22;48849;48.758;9.158;2022-08-19T11:18:41;23.80;99.90
2212;DHT22;48849;48.758;9.158;2022-08-19T11:21:10;23.80;99.90
2212;DHT22;48849;48.758;9.158;2022-08-19T11:23:38;23.80;99.90
2212;DHT22;48849;48.758;9.158;2022-08-19T11:26:06;23.80;99.90
2212;DHT22;48849;48.758;9.158;2022-08-19T11:28:33;23.80;99.90
2212;DHT22;48849;48.758;9.158;2022-08-19T11:31:00;23.80;99.90
2212;DHT22;48849;48.758;9.158;2022-08-19T11:33:28;23.80;99.90
2212;DHT22;48849;48.758;9.158;2022-08-19T11:35:57;23.80;99.90
2212;DHT22;48849;48.758;9.158;2022-08-19T11:38:23;23.90;99.90
2212;DHT22;48849;48.758;9.158;2022-08-19T11:40:55;23.90;99.90
2212;DHT22;48849;48.758;9.158;2022-08-19T11:43:23;23.90;99.90
2212;DHT22;48849;48.758;9.158;2022-08-19T11:45:52;23.90;99.90
2212;DHT22;48849;48.758;9.158;2022-08-19T11:48:18;23.90;99.90
2212;DHT22;48849;48.758;9.158;2022-08-19T11:50:47;24.00;99.90
2212;DHT22;48849;48.758;9.158;2022-08-19T11:53:14;23.90;99.90
2212;DHT22;48849;48.758;9.158;2022-08-19T11:55:41;24.00;99.90
2212;DHT22;48849;48.758;9.158;2022-08-19T11:58:08;24.00;99.90
2212;DHT22;48849;48.758;9.158;2022-08-19T12:00:37;23.90;99.90
2212;DHT22;48849;48.758;9.158;2022-08-19T12:03:06;23.90;99.90
2212;DHT22;48849;48.758;9.158;2022-08-19T12:05:33;24.00;99.90
2212;DHT22;48849;48.758;9.158;2022-08-19T12:07:59;24.00;99.90
2212;DHT22;48849;48.758;9.158;2022-08-19T12:10:26;24.00;99.90
2212;DHT22;48849;48.758;9.158;2022-08-19T12:12:53;24.00;99.90
2212;DHT22;48849;48.758;9.158;2022-08-19T12:15:19;24.00;99.90
2212;DHT22;48849;48.758;9.158;2022-08-19T12:17:48;24.00;99.90
2212;DHT22;48849;48.758;9.158;2022-08-19T12:20:14;24.00;99.90
2212;DHT22;48849;48.758;9.158;2022-08-19T12:22:42;24.00;99.90
2212;DHT22;48849;48.758;9.158;2022-08-19T12:25:10;24.00;99.90
2212;DHT22;48849;48.758;9.158;2022-08-19T12:27:38;24.00;99.90
2212;DHT22;48849;48.758;9.158;2022-08-19T12:30:08;24.00;99.90
2212;DHT22;48849;48.758;9.158;2022-08-19T12:32:35;24.10;99.90
2212;DHT22;48849;48.758;9.158;2022-08-19T12:35:05;24.10;99.90
2212;DHT22;48849;48.758;9.158;2022-08-19T12:37:32;24.10;99.90
2212;DHT22;48849;48.758;9.158;2022-08-19T12:39:59;24.10;99.90
2212;DHT22;48849;48.758;9.158;2022-08-19T12:42:26;24.10;99.90
2212;DHT22;48849;48.758;9.158;2022-08-19T12:44:53;24.10;99.90
2212;DHT22;48849;48.758;9.158;2022-08-19T12:47:20;24.10;99.90
2212;DHT22;48849;48.758;9.158;2022-08-19T12:49:48;24.10;99.90
2212;DHT22;48849;48.758;9.158;2022-08-19T12:52:16;24.10;99.90
2212;DHT22;48849;48.758;9.158;2022-08-19T12:54:46;24.00;99.90
2212;DHT22;48849;48.758;9.158;2022-08-19T12:57:13;24.00;99.90
2212;DHT22;48849;48.758;9.158;2022-08-19T12:59:40;23.90;99.90
2212;DHT22;48849;48.758;9.158;2022-08-19T13:02:08;23.90;99.90
2212;DHT22;48849;48.758;9.158;2022-08-19T13:04:35;23.90;99.90
2212;DHT22;48849;48.758;9.158;2022-08-19T13:07:06;23.90;99.90
2212;DHT22;48849;48.758;9.158;2022-08-19T13:09:34;23.90;99.90
2212;DHT22;48849;48.758;9.158;2022-08-19T13:12:02;23.90;99.90
2212;DHT22;48849;48.758;9.158;2022-08-19T13:14:33;24.00;99.90
2212;DHT22;48849;48.758;9.158;2022-08-19T13:17:00;23.90;99.90
2212;DHT22;48849;48.758;9.158;2022-08-19T13:19:26;23.90;99.90
2212;DHT22;48849;48.758;9.158;2022-08-19T13:21:53;23.90;99.90
2212;DHT22;48849;48.758;9.158;2022-08-19T13:24:21;24.00;99.90
2212;DHT22;48849;48.758;9.158;2022-08-19T13:26:49;24.00;99.90
2212;DHT22;48849;48.758;9.158;2022-08-19T13:29:16;24.00;99.90
2212;DHT22;48849;48.758;9.158;2022-08-19T13:32:00;24.00;99.90
2212;DHT22;48849;48.758;9.158;2022-08-19T13:34:44;24.00;99.90
2212;DHT22;48849;48.758;9.158;2022-08-19T13:37:12;24.00;99.90
2212;DHT22;48849;48.758;9.158;2022-08-19T13:39:38;24.00;99.90
2212;DHT22;48849;48.758;9.158;2022-08-19T13:42:07;24.00;99.90
2212;DHT22;48849;48.758;9.158;2022-08-19T13:44:34;23.90;99.90
2212;DHT22;48849;48.758;9.158;2022-08-19T13:47:02;23.90;99.90
2212;DHT22;48849;48.758;9.158;2022-08-19T13:49:33;23.90;99.90
2212;DHT22;48849;48.758;9.158;2022-08-19T13:52:01;23.90;99.90
2212;DHT22;48849;48.758;9.158;2022-08-19T13:54:29;23.90;99.90
2212;DHT22;48849;48.758;9.158;2022-08-19T13:56:55;23.90;99.90
2212;DHT22;48849;48.758;9.158;2022-08-19T13:59:23;23.90;99.90
2212;DHT22;48849;48.758;9.158;2022-08-19T14:01:50;23.80;99.90
2212;DHT22;48849;48.758;9.158;2022-08-19T14:04:17;23.80;99.90
2212;DHT22;48849;48.758;9.158;2022-08-19T14:06:43;23.80;99.90
2212;DHT22;48849;48.758;9.158;2022-08-19T14:09:10;23.80;99.90
2212;DHT22;48849;48.758;9.158;2022-08-19T14:11:37;23.80;99.90
2212;DHT22;48849;48.758;9.158;2022-08-19T14:14:04;23.80;99.90
2212;DHT22;48849;48.758;9.158;2022-08-19T14:16:32;23.80;99.90
2212;DHT22;48849;48.758;9.158;2022-08-19T14:18:59;23.80;99.90
2212;DHT22;48849;48.758;9.158;2022-08-19T14:21:25;23.70;99.90
2212;DHT22;48849;48.758;9.158;2022-08-19T14:23:52;23.60;99.90
2212;DHT22;48849;48.758;9.158;2022-08-19T14:26:21;23.70;99.90
2212;DHT22;48849;48.758;9.158;2022-08-19T14:28:48;23.70;99.90
2212;DHT22;48849;48.758;9.158;2022-08-19T14:31:16;23.70;99.90
2212;DHT22;48849;48.758;9.158;2022-08-19T14:33:46;23.70;99.90
2212;DHT22;48849;48.758;9.158;2022-08-19T14:36:13;23.70;99.90
2212;DHT22;48849;48.758;9.158;2022-08-19T14:38:40;24.50;99.90
2212;DHT22;48849;48.758;9.158;2022-08-19T14:41:13;23.70;99.90
2212;DHT22;48849;48.758;9.158;2022-08-19T14:43:42;23.70;99.90
2212;DHT22;48849;48.758;9.158;2022-08-19T14:46:11;23.70;99.90
2212;DHT22;48849;48.758;9.158;2022-08-19T14:48:38;23.70;99.90
2212;DHT22;48849;48.758;9.158;2022-08-19T14:51:07;23.80;99.90
2212;DHT22;48849;48.758;9.158;2022-08-19T14:53:34;23.80;99.90
2212;DHT22;48849;48.758;9.158;2022-08-19T14:56:01;23.80;99.90
2212;DHT22;48849;48.758;9.158;2022-08-19T14:58:28;23.80;99.90
2212;DHT22;48849;48.758;9.158;2022-08-19T15:00:56;23.90;99.90
2212;DHT22;48849;48.758;9.158;2022-08-19T15:03:23;23.90;99.90
2212;DHT22;48849;48.758;9.158;2022-08-19T15:05:50;23.90;99.90
2212;DHT22;48849;48.758;9.158;2022-08-19T15:08:18;23.90;99.90
2212;DHT22;48849;48.758;9.158;2022-08-19T15:10:48;23.90;99.90
2212;DHT22;48849;48.758;9.158;2022-08-19T15:13:15;23.90;99.90
2212;DHT22;48849;48.758;9.158;2022-08-19T15:15:42;23.90;99.90
2212;DHT22;48849;48.758;9.158;2022-08-19T15:18:09;23.90;99.90
2212;DHT22;48849;48.758;9.158;2022-08-19T15:20:35;23.90;99.90
2212;DHT22;48849;48.758;9.158;2022-08-19T15:23:03;24.00;99.90
2212;DHT22;48849;48.758;9.158;2022-08-19T15:25:31;24.00;99.90
2212;DHT22;48849;48.758;9.158;2022-08-19T15:27:59;23.90;99.90
2212;DHT22;48849;48.758;9.158;2022-08-19T15:30:27;24.00;99.90
2212;DHT22;48849;48.758;9.158;2022-08-19T15:32:55;24.00;99.90
2212;DHT22;48849;48.758;9.158;2022-08-19T15:35:22;24.00;99.90
2212;DHT22;48849;48.758;9.158;2022-08-19T15:37:50;24.00;99.90
2212;DHT22;48849;48.758;9.158;2022-08-19T15:40:18;24.00;99.90
2212;DHT22;48849;48.758;9.158;2022-08-19T15:42:46;24.00;99.90
2212;DHT22;48849;48.758;9.158;2022-08-19T15:45:15;24.10;99.90
2212;DHT22;48849;48.758;9.158;2022-08-19T15:47:42;24.10;99.90
2212;DHT22;48849;48.758;9.158;2022-08-19T15:50:12;24.20;99.90
2212;DHT22;48849;48.758;9.158;2022-08-19T15:52:44;24.20;99.90